sensor_id;sensor_type;location;lat;lon;timestamp;temperature;humidity
40123;DHT22;25832;45.490;4.912;2024-03-17T00:01:04;7.80;99.90
40123;DHT22;25832;45.490;4.912;2024-03-17T00:03:30;7.80;99.90
40123;DHT22;25832;45.490;4.912;2024-03-17T00:06:00;7.70;99.90
40123;DHT22;25832;45.490;4.912;2024-03-17T00:08:26;7.70;99.90
40123;DHT22;25832;45.490;4.912;2024-03-17T00:10:55;7.70;99.90
40123;DHT22;25832;45.490;4.912;2024-03-17T00:13:21;7.60;99.90
40123;DHT22;25832;45.490;4.912;2024-03-17T00:15:50;7.60;99.90
40123;DHT22;25832;45.490;4.912;2024-03-17T00:18:16;7.50;99.90
40123;DHT22;25832;45.490;4.912;2024-03-17T00:20:41;7.50;99.90
40123;DHT22;25832;45.490;4.912;2024-03-17T00:23:08;7.30;99.90
40123;DHT22;25832;45.490;4.912;2024-03-17T00:25:35;7.30;99.90
40123;DHT22;25832;45.490;4.912;2024-03-17T00:28:01;7.20;99.90
40123;DHT22;25832;45.490;4.912;2024-03-17T00:30:27;7.20;99.90
40123;DHT22;25832;45.490;4.912;2024-03-17T00:32:53;7.20;99.90
40123;DHT22;25832;45.490;4.912;2024-03-17T00:35:19;7.10;99.90
40123;DHT22;25832;45.490;4.912;2024-03-17T00:37:48;7.10;99.90
40123;DHT22;25832;45.490;4.912;2024-03-17T00:40:14;7.00;99.90
40123;DHT22;25832;45.490;4.912;2024-03-17T00:42:41;7.00;99.90
40123;DHT22;25832;45.490;4.912;2024-03-17T00:45:08;7.00;99.90
40123;DHT22;25832;45.490;4.912;2024-03-17T00:47:35;7.00;99.90
40123;DHT22;25832;45.490;4.912;2024-03-17T00:50:01;6.90;99.90
40123;DHT22;25832;45.490;4.912;2024-03-17T00:52:27;6.90;99.90
40123;DHT22;25832;45.490;4.912;2024-03-17T00:54:53;6.90;99.90
40123;DHT22;25832;45.490;4.912;2024-03-17T00:57:19;7.00;99.90
40123;DHT22;25832;45.490;4.912;2024-03-17T00:59:45;7.00;99.90
40123;DHT22;25832;45.490;4.912;2024-03-17T01:02:11;7.00;99.90
40123;DHT22;25832;45.490;4.912;2024-03-17T01:04:40;7.00;99.90
40123;DHT22;25832;45.490;4.912;2024-03-17T01:07:06;7.10;99.90
40123;DHT22;25832;45.490;4.912;2024-03-17T01:09:32;7.10;99.90
40123;DHT22;25832;45.490;4.912;2024-03-17T01:11:57;7.10;99.90
40123;DHT22;25832;45.490;4.912;2024-03-17T01:14:23;7.10;99.90
40123;DHT22;25832;45.490;4.912;2024-03-17T01:16:51;7.10;99.90
40123;DHT22;25832;45.490;4.912;2024-03-17T01:19:16;7.10;99.90
40123;DHT22;25832;45.490;4.912;2024-03-17T01:21:42;7.10;99.90
40123;DHT22;25832;45.490;4.912;2024-03-17T01:24:08;7.10;99.90
40123;DHT22;25832;45.490;4.912;2024-03-17T01:26:34;7.10;99.90
40123;DHT22;25832;45.490;4.912;2024-03-17T01:28:59;7.10;99.90
40123;DHT22;25832;45.490;4.912;2024-03-17T01:31:25;7.10;99.90
40123;DHT22;25832;45.490;4.912;2024-03-17T01:33:50;7.10;99.90
40123;DHT22;25832;45.490;4.912;2024-03-17T01:36:16;7.10;99.90
40123;DHT22;25832;45.490;4.912;2024-03-17T01:38:42;7.10;99.90
40123;DHT22;25832;45.490;4.912;2024-03-17T01:41:07;7.10;99.90
40123;DHT22;25832;45.490;4.912;2024-03-17T01:43:33;7.10;99.90
40123;DHT22;25832;45.490;4.912;2024-03-17T01:45:59;7.10;99.90
40123;DHT22;25832;45.490;4.912;2024-03-17T01:48:25;7.10;99.90
40123;DHT22;25832;45.490;4.912;2024-03-17T01:50:53;7.20;99.90
40123;DHT22;25832;45.490;4.912;2024-03-17T01:53:19;7.20;99.90
40123;DHT22;25832;45.490;4.912;2024-03-17T01:55:47;7.20;99.90
40123;DHT22;25832;45.490;4.912;2024-03-17T01:58:12;7.10;99.90
40123;DHT22;25832;45.490;4.912;2024-03-17T02:00:39;7.20;99.90
40123;DHT22;25832;45.490;4.912;2024-03-17T02:03:06;7.10;99.90
40123;DHT22;25832;45.490;4.912;2024-03-17T02:05:32;7.10;99.90
40123;DHT22;25832;45.490;4.912;2024-03-17T02:07:59;7.20;99.90
40123;DHT22;25832;45.490;4.912;2024-03-17T02:10:25;7.20;99.90
40123;DHT22;25832;45.490;4.912;2024-03-17T02:12:51;7.10;99.90
40123;DHT22;25832;45.490;4.912;2024-03-17T02:15:17;7.00;99.90
40123;DHT22;25832;45.490;4.912;2024-03-17T02:17:43;7.10;99.90
40123;DHT22;25832;45.490;4.912;2024-03-17T02:20:09;7.10;99.90
40123;DHT22;25832;45.490;4.912;2024-03-17T02:22:39;7.00;99.90
40123;DHT22;25832;45.490;4.912;2024-03-17T02:25:05;7.00;99.90
40123;DHT22;25832;45.490;4.912;2024-03-17T02:27:35;6.90;99.90
40123;DHT22;25832;45.490;4.912;2024-03-17T02:30:02;6.90;99.90
40123;DHT22;25832;45.490;4.912;2024-03-17T02:32:28;7.00;99.90
40123;DHT22;25832;45.490;4.912;2024-03-17T02:34:54;7.00;99.90
40123;DHT22;25832;45.490;4.912;2024-03-17T02:37:20;7.10;99.90
40123;DHT22;25832;45.490;4.912;2024-03-17T02:39:46;7.20;99.90
40123;DHT22;25832;45.490;4.912;2024-03-17T02:42:11;7.20;99.90
40123;DHT22;25832;45.490;4.912;2024-03-17T02:44:38;7.30;99.90
40123;DHT22;25832;45.490;4.912;2024-03-17T02:47:05;7.30;99.90
40123;DHT22;25832;45.490;4.912;2024-03-17T02:49:34;7.30;99.90
40123;DHT22;25832;45.490;4.912;2024-03-17T02:52:05;7.30;99.90
40123;DHT22;25832;45.490;4.912;2024-03-17T02:54:32;7.40;99.90
40123;DHT22;25832;45.490;4.912;2024-03-17T02:56:58;7.40;99.90
40123;DHT22;25832;45.490;4.912;2024-03-17T02:59:24;7.40;99.90
40123;DHT22;25832;45.490;4.912;2024-03-17T03:01:51;7.30;99.90
40123;DHT22;25832;45.490;4.912;2024-03-17T03:04:16;7.30;99.90
40123;DHT22;25832;45.490;4.912;2024-03-17T03:06:42;7.30;99.90
40123;DHT22;25832;45.490;4.912;2024-03-17T03:09:08;7.30;99.90
40123;DHT22;25832;45.490;4.912;2024-03-17T03:11:38;7.30;99.90
40123;DHT22;25832;45.490;4.912;2024-03-17T03:14:05;7.40;99.90
40123;DHT22;25832;45.490;4.912;2024-03-17T03:16:30;7.40;99.90
40123;DHT22;25832;45.490;4.912;2024-03-17T03:18:56;7.40;99.90
40123;DHT22;25832;45.490;4.912;2024-03-17T03:21:21;7.40;99.90
40123;DHT22;25832;45.490;4.912;2024-03-17T03:23:47;7.40;99.90
40123;DHT22;25832;45.490;4.912;2024-03-17T03:26:13;7.40;99.90
40123;DHT22;25832;45.490;4.912;2024-03-17T03:28:39;7.40;99.90
40123;DHT22;25832;45.490;4.912;2024-03-17T03:31:05;7.40;99.90
40123;DHT22;25832;45.490;4.912;2024-03-17T03:33:30;7.40;99.90
40123;DHT22;25832;45.490;4.912;2024-03-17T03:35:56;7.40;99.90
40123;DHT22;25832;45.490;4.912;2024-03-17T03:38:22;7.40;99.90
40123;DHT22;25832;45.490;4.912;2024-03-17T03:40:48;7.40;99.90
40123;DHT22;25832;45.490;4.912;2024-03-17T03:43:15;7.40;99.90
40123;DHT22;25832;45.490;4.912;2024-03-17T03:45:41;7.50;99.90
40123;DHT22;25832;45.490;4.912;2024-03-17T03:48:08;7.50;99.90
40123;DHT22;25832;45.490;4.912;2024-03-17T03:50:34;7.60;99.90
40123;DHT22;25832;45.490;4.912;2024-03-17T03:53:00;7.70;99.90
40123;DHT22;25832;45.490;4.912;2024-03-17T03:55:26;7.70;99.90
40123;DHT22;25832;45.490;4.912;2024-03-17T03:57:51;7.70;99.90
40123;DHT22;25832;45.490;4.912;2024-03-17T04:00:20;7.70;99.90
40123;DHT22;25832;45.490;4.912;2024-03-17T04:02:50;7.60;99.90
40123;DHT22;25832;45.490;4.912;2024-03-17T04:05:20;7.60;99.90
40123;DHT22;25832;45.490;4.912;2024-03-17T04:07:47;7.50;99.90
40123;DHT22;25832;45.490;4.912;2024-03-17T04:10:14;7.50;99.90
40123;DHT22;25832;45.490;4.912;2024-03-17T04:12:41;7.60;99.90
40123;DHT22;25832;45.490;4.912;2024-03-17T04:15:08;7.60;99.90
40123;DHT22;25832;45.490;4.912;2024-03-17T04:17:35;7.60;99.90
40123;DHT22;25832;45.490;4.912;2024-03-17T04:20:01;7.60;99.90
40123;DHT22;25832;45.490;4.912;2024-03-17T04:22:27;7.60;99.90
40123;DHT22;25832;45.490;4.912;2024-03-17T04:24:53;7.50;99.90
40123;DHT22;25832;45.490;4.912;2024-03-17T04:27:26;7.50;99.90
40123;DHT22;25832;45.490;4.912;2024-03-17T04:29:56;7.50;99.90
40123;DHT22;25832;45.490;4.912;2024-03-17T04:32:23;7.50;99.90
40123;DHT22;25832;45.490;4.912;2024-03-17T04:34:49;7.40;99.90
40123;DHT22;25832;45.490;4.912;2024-03-17T04:37:15;7.50;99.90
40123;DHT22;25832;45.490;4.912;2024-03-17T04:39:43;7.50;99.90
40123;DHT22;25832;45.490;4.912;2024-03-17T04:42:09;7.40;99.90
40123;DHT22;25832;45.490;4.912;2024-03-17T04:44:35;7.40;99.90
40123;DHT22;25832;45.490;4.912;2024-03-17T04:47:01;7.30;99.90
40123;DHT22;25832;45.490;4.912;2024-03-17T04:49:27;7.30;99.90
40123;DHT22;25832;45.490;4.912;2024-03-17T04:51:53;7.30;99.90
40123;DHT22;25832;45.490;4.912;2024-03-17T04:54:19;7.20;99.90
40123;DHT22;25832;45.490;4.912;2024-03-17T04:56:44;7.30;99.90
40123;DHT22;25832;45.490;4.912;2024-03-17T04:59:10;7.20;99.90
40123;DHT22;25832;45.490;4.912;2024-03-17T05:01:35;7.20;99.90
40123;DHT22;25832;45.490;4.912;2024-03-17T05:04:04;7.20;99.90
40123;DHT22;25832;45.490;4.912;2024-03-17T05:06:30;7.20;99.90
40123;DHT22;25832;45.490;4.912;2024-03-17T05:08:56;7.20;99.90
40123;DHT22;25832;45.490;4.912;2024-03-17T05:11:22;7.20;99.90
40123;DHT22;25832;45.490;4.912;2024-03-17T05:13:49;7.20;99.90
40123;DHT22;25832;45.490;4.912;2024-03-17T05:16:15;7.20;99.90
40123;DHT22;25832;45.490;4.912;2024-03-17T05:18:41;7.20;99.90
40123;DHT22;25832;45.490;4.912;2024-03-17T05:21:07;7.20;99.90
40123;DHT22;25832;45.490;4.912;2024-03-17T05:23:34;7.20;99.90
40123;DHT22;25832;45.490;4.912;2024-03-17T05:26:00;7.20;99.90
40123;DHT22;25832;45.490;4.912;2024-03-17T05:28:28;7.20;99.90
40123;DHT22;25832;45.490;4.912;2024-03-17T05:30:54;7.20;99.90
40123;DHT22;25832;45.490;4.912;2024-03-17T05:33:21;7.20;99.90
40123;DHT22;25832;45.490;4.912;2024-03-17T05:35:50;7.30;99.90
40123;DHT22;25832;45.490;4.912;2024-03-17T05:38:19;7.30;99.90
40123;DHT22;25832;45.490;4.912;2024-03-17T05:40:52;7.30;99.90
40123;DHT22;25832;45.490;4.912;2024-03-17T05:43:18;7.40;99.90
40123;DHT22;25832;45.490;4.912;2024-03-17T05:45:44;7.50;99.90
40123;DHT22;25832;45.490;4.912;2024-03-17T05:48:10;7.50;99.90
40123;DHT22;25832;45.490;4.912;2024-03-17T05:50:35;7.50;99.90
40123;DHT22;25832;45.490;4.912;2024-03-17T05:53:01;7.60;99.90
40123;DHT22;25832;45.490;4.912;2024-03-17T05:55:26;7.60;99.90
40123;DHT22;25832;45.490;4.912;2024-03-17T05:57:52;7.60;99.90
40123;DHT22;25832;45.490;4.912;2024-03-17T06:00:19;7.70;99.90
40123;DHT22;25832;45.490;4.912;2024-03-17T06:02:45;7.70;99.90
40123;DHT22;25832;45.490;4.912;2024-03-17T06:05:12;7.70;99.90
40123;DHT22;25832;45.490;4.912;2024-03-17T06:07:40;7.80;99.90
40123;DHT22;25832;45.490;4.912;2024-03-17T06:10:06;7.70;99.90
40123;DHT22;25832;45.490;4.912;2024-03-17T06:12:32;7.80;99.90
40123;DHT22;25832;45.490;4.912;2024-03-17T06:14:57;7.80;99.90
40123;DHT22;25832;45.490;4.912;2024-03-17T06:17:23;7.80;99.90
40123;DHT22;25832;45.490;4.912;2024-03-17T06:19:49;7.80;99.90
40123;DHT22;25832;45.490;4.912;2024-03-17T06:22:14;7.80;99.90
40123;DHT22;25832;45.490;4.912;2024-03-17T06:24:40;7.80;99.90
40123;DHT22;25832;45.490;4.912;2024-03-17T06:27:06;7.80;99.90
40123;DHT22;25832;45.490;4.912;2024-03-17T06:29:35;7.80;99.90
40123;DHT22;25832;45.490;4.912;2024-03-17T06:32:00;7.80;99.90
40123;DHT22;25832;45.490;4.912;2024-03-17T06:34:26;7.80;99.90
40123;DHT22;25832;45.490;4.912;2024-03-17T06:36:52;7.90;99.90
40123;DHT22;25832;45.490;4.912;2024-03-17T06:39:17;7.90;99.90
40123;DHT22;25832;45.490;4.912;2024-03-17T06:41:45;7.90;99.90
40123;DHT22;25832;45.490;4.912;2024-03-17T06:44:11;8.00;99.90
40123;DHT22;25832;45.490;4.912;2024-03-17T06:46:36;8.00;99.90
40123;DHT22;25832;45.490;4.912;2024-03-17T06:49:02;8.00;99.90
40123;DHT22;25832;45.490;4.912;2024-03-17T06:51:28;8.10;99.90
40123;DHT22;25832;45.490;4.912;2024-03-17T06:53:53;8.10;99.90
40123;DHT22;25832;45.490;4.912;2024-03-17T06:56:19;8.10;99.90
40123;DHT22;25832;45.490;4.912;2024-03-17T06:58:44;8.20;99.90
40123;DHT22;25832;45.490;4.912;2024-03-17T07:01:10;8.30;99.90
40123;DHT22;25832;45.490;4.912;2024-03-17T07:03:36;8.30;99.90
40123;DHT22;25832;45.490;4.912;2024-03-17T07:06:02;8.30;99.90
40123;DHT22;25832;45.490;4.912;2024-03-17T07:08:29;8.30;99.90
40123;DHT22;25832;45.490;4.912;2024-03-17T07:11:00;8.40;99.90
40123;DHT22;25832;45.490;4.912;2024-03-17T07:13:35;8.40;99.90
40123;DHT22;25832;45.490;4.912;2024-03-17T07:16:01;8.40;99.90
40123;DHT22;25832;45.490;4.912;2024-03-17T07:18:28;8.40;99.90
40123;DHT22;25832;45.490;4.912;2024-03-17T07:21:01;8.50;99.90
40123;DHT22;25832;45.490;4.912;2024-03-17T07:23:28;8.60;99.90
40123;DHT22;25832;45.490;4.912;2024-03-17T07:25:59;8.60;99.90
40123;DHT22;25832;45.490;4.912;2024-03-17T07:28:25;8.70;99.90
40123;DHT22;25832;45.490;4.912;2024-03-17T07:30:53;8.80;99.90
40123;DHT22;25832;45.490;4.912;2024-03-17T07:33:19;8.90;99.90
40123;DHT22;25832;45.490;4.912;2024-03-17T07:35:49;9.00;99.90
40123;DHT22;25832;45.490;4.912;2024-03-17T07:38:15;8.80;99.90
40123;DHT22;25832;45.490;4.912;2024-03-17T07:40:41;8.70;99.90
40123;DHT22;25832;45.490;4.912;2024-03-17T07:43:07;8.50;99.90
40123;DHT22;25832;45.490;4.912;2024-03-17T07:45:33;8.40;99.90
40123;DHT22;25832;45.490;4.912;2024-03-17T07:47:59;8.40;99.90
40123;DHT22;25832;45.490;4.912;2024-03-17T07:50:24;8.50;99.90
40123;DHT22;25832;45.490;4.912;2024-03-17T07:52:50;8.50;99.90
40123;DHT22;25832;45.490;4.912;2024-03-17T07:55:16;8.60;99.90
40123;DHT22;25832;45.490;4.912;2024-03-17T07:57:41;8.70;99.90
40123;DHT22;25832;45.490;4.912;2024-03-17T08:00:07;8.70;99.90
40123;DHT22;25832;45.490;4.912;2024-03-17T08:02:47;8.80;99.90
40123;DHT22;25832;45.490;4.912;2024-03-17T08:05:13;8.90;99.90
40123;DHT22;25832;45.490;4.912;2024-03-17T08:07:39;9.00;99.90
40123;DHT22;25832;45.490;4.912;2024-03-17T08:10:05;9.20;99.90
40123;DHT22;25832;45.490;4.912;2024-03-17T08:12:31;9.30;99.90
40123;DHT22;25832;45.490;4.912;2024-03-17T08:14:57;9.40;99.90
40123;DHT22;25832;45.490;4.912;2024-03-17T08:17:22;9.50;99.90
40123;DHT22;25832;45.490;4.912;2024-03-17T08:19:48;9.70;99.90
40123;DHT22;25832;45.490;4.912;2024-03-17T08:22:14;9.80;99.90
40123;DHT22;25832;45.490;4.912;2024-03-17T08:24:42;10.00;99.90
40123;DHT22;25832;45.490;4.912;2024-03-17T08:27:08;10.20;99.90
40123;DHT22;25832;45.490;4.912;2024-03-17T08:29:34;10.40;99.90
40123;DHT22;25832;45.490;4.912;2024-03-17T08:32:00;10.50;99.90
40123;DHT22;25832;45.490;4.912;2024-03-17T08:34:25;10.80;99.90
40123;DHT22;25832;45.490;4.912;2024-03-17T08:36:51;11.00;99.90
40123;DHT22;25832;45.490;4.912;2024-03-17T08:39:17;11.30;99.90
40123;DHT22;25832;45.490;4.912;2024-03-17T08:41:42;11.50;99.90
40123;DHT22;25832;45.490;4.912;2024-03-17T08:44:09;11.70;99.90
40123;DHT22;25832;45.490;4.912;2024-03-17T08:46:35;11.90;99.90
40123;DHT22;25832;45.490;4.912;2024-03-17T08:49:01;12.20;99.90
40123;DHT22;25832;45.490;4.912;2024-03-17T08:51:26;12.40;99.90
40123;DHT22;25832;45.490;4.912;2024-03-17T08:53:53;12.50;99.90
40123;DHT22;25832;45.490;4.912;2024-03-17T08:56:19;12.70;99.90
40123;DHT22;25832;45.490;4.912;2024-03-17T08:58:46;12.80;99.90
40123;DHT22;25832;45.490;4.912;2024-03-17T09:01:14;12.90;99.90
40123;DHT22;25832;45.490;4.912;2024-03-17T09:03:40;13.00;99.90
40123;DHT22;25832;45.490;4.912;2024-03-17T09:06:16;13.20;99.90
40123;DHT22;25832;45.490;4.912;2024-03-17T09:08:42;13.30;99.90
40123;DHT22;25832;45.490;4.912;2024-03-17T09:11:13;13.50;99.90
40123;DHT22;25832;45.490;4.912;2024-03-17T09:13:39;13.60;99.90
40123;DHT22;25832;45.490;4.912;2024-03-17T09:16:05;13.90;99.90
40123;DHT22;25832;45.490;4.912;2024-03-17T09:18:32;14.00;99.90
40123;DHT22;25832;45.490;4.912;2024-03-17T09:20:59;14.30;99.90
40123;DHT22;25832;45.490;4.912;2024-03-17T09:23:26;14.40;99.90
40123;DHT22;25832;45.490;4.912;2024-03-17T09:26:01;14.60;99.90
40123;DHT22;25832;45.490;4.912;2024-03-17T09:28:28;14.70;99.90
40123;DHT22;25832;45.490;4.912;2024-03-17T09:30:54;14.80;99.90
40123;DHT22;25832;45.490;4.912;2024-03-17T09:33:21;14.80;99.90
40123;DHT22;25832;45.490;4.912;2024-03-17T09:36:13;14.90;99.90
40123;DHT22;25832;45.490;4.912;2024-03-17T09:38:39;15.00;99.90
40123;DHT22;25832;45.490;4.912;2024-03-17T09:41:07;15.10;99.90
40123;DHT22;25832;45.490;4.912;2024-03-17T09:43:34;15.20;99.90
40123;DHT22;25832;45.490;4.912;2024-03-17T09:46:04;15.30;99.90
40123;DHT22;25832;45.490;4.912;2024-03-17T09:48:30;15.30;99.90
40123;DHT22;25832;45.490;4.912;2024-03-17T09:50:58;15.40;99.90
40123;DHT22;25832;45.490;4.912;2024-03-17T09:53:28;15.50;99.90
40123;DHT22;25832;45.490;4.912;2024-03-17T09:56:13;15.70;99.90
40123;DHT22;25832;45.490;4.912;2024-03-17T09:58:47;15.80;99.90
40123;DHT22;25832;45.490;4.912;2024-03-17T10:01:13;15.90;99.90
40123;DHT22;25832;45.490;4.912;2024-03-17T10:03:43;16.10;99.90
40123;DHT22;25832;45.490;4.912;2024-03-17T10:06:16;16.20;99.90
40123;DHT22;25832;45.490;4.912;2024-03-17T10:08:45;16.30;99.90
40123;DHT22;25832;45.490;4.912;2024-03-17T10:11:15;16.50;99.90
40123;DHT22;25832;45.490;4.912;2024-03-17T10:13:44;16.60;99.90
40123;DHT22;25832;45.490;4.912;2024-03-17T10:16:24;16.60;99.80
40123;DHT22;25832;45.490;4.912;2024-03-17T10:18:51;16.70;99.90
40123;DHT22;25832;45.490;4.912;2024-03-17T10:21:25;16.70;99.80
40123;DHT22;25832;45.490;4.912;2024-03-17T10:24:11;16.70;99.50
40123;DHT22;25832;45.490;4.912;2024-03-17T10:26:58;16.70;99.90
40123;DHT22;25832;45.490;4.912;2024-03-17T10:29:32;16.90;99.30
40123;DHT22;25832;45.490;4.912;2024-03-17T10:31:59;17.00;99.00
40123;DHT22;25832;45.490;4.912;2024-03-17T10:34:28;17.00;98.50
40123;DHT22;25832;45.490;4.912;2024-03-17T10:37:11;17.10;98.30
40123;DHT22;25832;45.490;4.912;2024-03-17T10:39:37;17.20;98.70
40123;DHT22;25832;45.490;4.912;2024-03-17T10:42:04;17.30;98.50
40123;DHT22;25832;45.490;4.912;2024-03-17T10:44:31;17.40;98.10
40123;DHT22;25832;45.490;4.912;2024-03-17T10:46:59;17.40;98.10
40123;DHT22;25832;45.490;4.912;2024-03-17T10:49:30;17.30;96.60
40123;DHT22;25832;45.490;4.912;2024-03-17T10:52:01;17.30;96.20
40123;DHT22;25832;45.490;4.912;2024-03-17T10:54:28;17.20;97.00
40123;DHT22;25832;45.490;4.912;2024-03-17T10:59:47;17.50;97.50
40123;DHT22;25832;45.490;4.912;2024-03-17T11:02:23;17.60;96.70
40123;DHT22;25832;45.490;4.912;2024-03-17T11:04:56;17.70;94.40
40123;DHT22;25832;45.490;4.912;2024-03-17T11:07:23;17.70;93.70
40123;DHT22;25832;45.490;4.912;2024-03-17T11:09:51;17.70;94.50
40123;DHT22;25832;45.490;4.912;2024-03-17T11:17:55;18.00;93.50
40123;DHT22;25832;45.490;4.912;2024-03-17T11:20:23;18.10;94.40
40123;DHT22;25832;45.490;4.912;2024-03-17T11:22:50;18.10;94.30
40123;DHT22;25832;45.490;4.912;2024-03-17T11:28:02;18.10;93.80
40123;DHT22;25832;45.490;4.912;2024-03-17T11:38:57;18.20;92.60
40123;DHT22;25832;45.490;4.912;2024-03-17T11:41:41;18.20;93.50
40123;DHT22;25832;45.490;4.912;2024-03-17T11:47:06;18.20;92.50
40123;DHT22;25832;45.490;4.912;2024-03-17T11:52:02;18.10;91.20
40123;DHT22;25832;45.490;4.912;2024-03-17T11:54:30;18.00;92.10
40123;DHT22;25832;45.490;4.912;2024-03-17T11:57:02;17.90;93.00
40123;DHT22;25832;45.490;4.912;2024-03-17T11:59:28;17.80;93.00
40123;DHT22;25832;45.490;4.912;2024-03-17T12:01:54;17.70;92.60
40123;DHT22;25832;45.490;4.912;2024-03-17T12:04:22;17.70;92.60
40123;DHT22;25832;45.490;4.912;2024-03-17T12:06:49;17.60;92.20
40123;DHT22;25832;45.490;4.912;2024-03-17T12:09:29;17.50;91.90
40123;DHT22;25832;45.490;4.912;2024-03-17T12:12:03;17.60;92.20
40123;DHT22;25832;45.490;4.912;2024-03-17T12:14:36;17.50;91.60
40123;DHT22;25832;45.490;4.912;2024-03-17T12:17:03;17.50;92.30
40123;DHT22;25832;45.490;4.912;2024-03-17T12:19:30;17.40;92.00
40123;DHT22;25832;45.490;4.912;2024-03-17T12:21:57;17.50;91.90
40123;DHT22;25832;45.490;4.912;2024-03-17T12:24:25;17.60;92.60
40123;DHT22;25832;45.490;4.912;2024-03-17T12:26:52;17.60;92.20
40123;DHT22;25832;45.490;4.912;2024-03-17T12:31:54;17.90;92.10
40123;DHT22;25832;45.490;4.912;2024-03-17T12:34:21;18.00;92.90
40123;DHT22;25832;45.490;4.912;2024-03-17T12:36:48;18.00;92.00
40123;DHT22;25832;45.490;4.912;2024-03-17T12:39:26;18.20;93.00
40123;DHT22;25832;45.490;4.912;2024-03-17T12:42:06;18.30;91.20
40123;DHT22;25832;45.490;4.912;2024-03-17T12:44:33;18.30;91.50
40123;DHT22;25832;45.490;4.912;2024-03-17T12:47:04;18.20;92.60
40123;DHT22;25832;45.490;4.912;2024-03-17T12:49:30;18.20;91.00
40123;DHT22;25832;45.490;4.912;2024-03-17T12:51:56;18.30;92.30
40123;DHT22;25832;45.490;4.912;2024-03-17T12:54:27;18.40;91.70
40123;DHT22;25832;45.490;4.912;2024-03-17T12:57:04;18.50;91.10
40123;DHT22;25832;45.490;4.912;2024-03-17T12:59:48;18.70;91.60
40123;DHT22;25832;45.490;4.912;2024-03-17T13:02:33;18.80;91.10
40123;DHT22;25832;45.490;4.912;2024-03-17T13:05:13;18.90;90.40
40123;DHT22;25832;45.490;4.912;2024-03-17T13:07:40;19.10;92.10
40123;DHT22;25832;45.490;4.912;2024-03-17T13:10:06;19.10;90.70
40123;DHT22;25832;45.490;4.912;2024-03-17T13:12:33;19.10;91.80
40123;DHT22;25832;45.490;4.912;2024-03-17T13:15:00;19.10;90.40
40123;DHT22;25832;45.490;4.912;2024-03-17T13:17:25;19.00;93.50
40123;DHT22;25832;45.490;4.912;2024-03-17T13:19:51;18.80;92.40
40123;DHT22;25832;45.490;4.912;2024-03-17T13:22:16;18.70;93.60
40123;DHT22;25832;45.490;4.912;2024-03-17T13:24:42;18.60;92.90
40123;DHT22;25832;45.490;4.912;2024-03-17T13:27:08;18.60;91.80
40123;DHT22;25832;45.490;4.912;2024-03-17T13:29:34;18.60;91.00
40123;DHT22;25832;45.490;4.912;2024-03-17T13:32:04;18.60;90.60
40123;DHT22;25832;45.490;4.912;2024-03-17T13:34:30;18.50;92.60
40123;DHT22;25832;45.490;4.912;2024-03-17T13:36:56;18.50;92.30
40123;DHT22;25832;45.490;4.912;2024-03-17T13:39:22;18.50;92.30
40123;DHT22;25832;45.490;4.912;2024-03-17T13:41:50;18.50;92.60
40123;DHT22;25832;45.490;4.912;2024-03-17T13:44:18;18.40;92.50
40123;DHT22;25832;45.490;4.912;2024-03-17T13:46:44;18.30;92.10
40123;DHT22;25832;45.490;4.912;2024-03-17T13:49:10;18.20;92.90
40123;DHT22;25832;45.490;4.912;2024-03-17T13:51:36;18.20;93.00
40123;DHT22;25832;45.490;4.912;2024-03-17T13:54:02;18.20;93.50
40123;DHT22;25832;45.490;4.912;2024-03-17T13:56:28;18.30;92.60
40123;DHT22;25832;45.490;4.912;2024-03-17T13:58:54;18.30;93.50
40123;DHT22;25832;45.490;4.912;2024-03-17T14:01:20;18.30;93.30
40123;DHT22;25832;45.490;4.912;2024-03-17T14:03:45;18.30;93.30
40123;DHT22;25832;45.490;4.912;2024-03-17T14:06:11;18.30;92.60
40123;DHT22;25832;45.490;4.912;2024-03-17T14:08:38;18.30;94.20
40123;DHT22;25832;45.490;4.912;2024-03-17T14:11:03;18.40;93.30
40123;DHT22;25832;45.490;4.912;2024-03-17T14:13:32;18.40;93.00
40123;DHT22;25832;45.490;4.912;2024-03-17T14:15:57;18.50;93.10
40123;DHT22;25832;45.490;4.912;2024-03-17T14:18:23;18.40;92.90
40123;DHT22;25832;45.490;4.912;2024-03-17T14:20:49;18.50;93.50
40123;DHT22;25832;45.490;4.912;2024-03-17T14:23:15;18.50;93.10
40123;DHT22;25832;45.490;4.912;2024-03-17T14:25:41;18.50;93.80
40123;DHT22;25832;45.490;4.912;2024-03-17T14:28:07;18.50;93.40
40123;DHT22;25832;45.490;4.912;2024-03-17T14:30:33;18.50;93.10
40123;DHT22;25832;45.490;4.912;2024-03-17T14:32:59;18.60;92.90
40123;DHT22;25832;45.490;4.912;2024-03-17T14:35:24;18.60;92.40
40123;DHT22;25832;45.490;4.912;2024-03-17T14:37:52;18.60;93.50
40123;DHT22;25832;45.490;4.912;2024-03-17T14:40:19;18.60;93.20
40123;DHT22;25832;45.490;4.912;2024-03-17T14:42:54;18.60;93.40
40123;DHT22;25832;45.490;4.912;2024-03-17T14:45:21;18.60;93.60
40123;DHT22;25832;45.490;4.912;2024-03-17T14:47:49;18.50;93.90
40123;DHT22;25832;45.490;4.912;2024-03-17T14:50:14;18.40;93.20
40123;DHT22;25832;45.490;4.912;2024-03-17T14:52:42;18.40;93.20
40123;DHT22;25832;45.490;4.912;2024-03-17T14:55:11;18.40;93.20
40123;DHT22;25832;45.490;4.912;2024-03-17T14:57:41;18.30;93.60
40123;DHT22;25832;45.490;4.912;2024-03-17T15:00:08;18.30;93.60
40123;DHT22;25832;45.490;4.912;2024-03-17T15:02:44;18.40;94.70
40123;DHT22;25832;45.490;4.912;2024-03-17T15:05:14;18.40;93.50
40123;DHT22;25832;45.490;4.912;2024-03-17T15:07:47;18.30;93.50
40123;DHT22;25832;45.490;4.912;2024-03-17T15:10:14;18.30;94.40
40123;DHT22;25832;45.490;4.912;2024-03-17T15:12:49;18.30;94.10
40123;DHT22;25832;45.490;4.912;2024-03-17T15:15:15;18.30;94.70
40123;DHT22;25832;45.490;4.912;2024-03-17T15:17:41;18.30;94.10
40123;DHT22;25832;45.490;4.912;2024-03-17T15:20:10;18.20;95.10
40123;DHT22;25832;45.490;4.912;2024-03-17T15:22:49;18.10;95.40
40123;DHT22;25832;45.490;4.912;2024-03-17T15:25:15;18.10;95.50
40123;DHT22;25832;45.490;4.912;2024-03-17T15:27:44;18.00;94.90
40123;DHT22;25832;45.490;4.912;2024-03-17T15:30:14;17.90;95.40
40123;DHT22;25832;45.490;4.912;2024-03-17T15:32:41;17.90;96.30
40123;DHT22;25832;45.490;4.912;2024-03-17T15:35:10;17.80;96.90
40123;DHT22;25832;45.490;4.912;2024-03-17T15:37:35;17.70;98.00
40123;DHT22;25832;45.490;4.912;2024-03-17T15:40:02;17.60;97.20
40123;DHT22;25832;45.490;4.912;2024-03-17T15:42:28;17.60;97.60
40123;DHT22;25832;45.490;4.912;2024-03-17T15:44:53;17.60;97.10
40123;DHT22;25832;45.490;4.912;2024-03-17T15:47:19;17.50;97.80
40123;DHT22;25832;45.490;4.912;2024-03-17T15:49:45;17.50;97.70
40123;DHT22;25832;45.490;4.912;2024-03-17T15:52:11;17.50;96.70
40123;DHT22;25832;45.490;4.912;2024-03-17T15:54:37;17.50;97.70
40123;DHT22;25832;45.490;4.912;2024-03-17T15:57:03;17.40;97.80
40123;DHT22;25832;45.490;4.912;2024-03-17T15:59:29;17.30;97.00
40123;DHT22;25832;45.490;4.912;2024-03-17T16:01:54;17.20;98.30
40123;DHT22;25832;45.490;4.912;2024-03-17T16:04:22;17.10;98.50
40123;DHT22;25832;45.490;4.912;2024-03-17T16:06:50;17.10;96.20
40123;DHT22;25832;45.490;4.912;2024-03-17T16:09:15;17.00;96.50